createdAt,value
2022-08-02T00:02:39.498Z,101447.25
2022-08-02T00:05:24.403Z,101451.22
2022-08-02T00:08:09.779Z,101453.69
2022-08-02T00:10:56.259Z,101455.69
2022-08-02T00:13:41.736Z,101452.47
2022-08-02T00:16:37.897Z,101444.78
2022-08-02T00:19:23.740Z,101432.00
2022-08-02T00:22:09.310Z,101449.88
2022-08-02T00:24:54.680Z,101451.94
2022-08-02T00:27:39.938Z,101448.06
2022-08-02T00:30:25.331Z,101440.38
2022-08-02T00:33:10.535Z,101442.22
2022-08-02T00:35:55.671Z,101426.00
2022-08-02T00:38:40.997Z,101439.69
2022-08-02T00:41:26.294Z,101428.66
2022-08-02T00:44:11.440Z,101427.81
2022-08-02T00:46:58.084Z,101425.16
2022-08-02T00:49:43.281Z,101422.78
2022-08-02T00:52:28.512Z,101422.94
2022-08-02T00:55:13.689Z,101420.97
2022-08-02T00:58:02.855Z,101427.13
2022-08-02T01:00:48.306Z,101415.66
2022-08-02T01:03:33.519Z,101408.13
2022-08-02T01:06:18.817Z,101428.53
2022-08-02T01:09:05.421Z,101399.38
2022-08-02T01:11:50.825Z,101403.81
2022-08-02T01:14:36.225Z,101412.75
2022-08-02T01:17:58.377Z,101417.06
2022-08-02T01:21:11.484Z,101402.84
2022-08-02T01:24:29.732Z,101419.19
2022-08-02T01:27:37.120Z,101399.50
2022-08-02T01:30:22.259Z,101417.91
2022-08-02T01:33:12.071Z,101410.94
2022-08-02T01:35:58.623Z,101392.53
2022-08-02T01:38:48.945Z,101400.47
2022-08-02T01:41:35.522Z,101412.19
2022-08-02T01:44:27.131Z,101408.28
2022-08-02T01:47:19.485Z,101405.22
2022-08-02T01:50:07.217Z,101405.94
2022-08-02T01:52:56.938Z,101399.91
2022-08-02T01:55:58.228Z,101395.88
2022-08-02T01:58:46.713Z,101400.06
2022-08-02T02:01:34.402Z,101392.94
2022-08-02T02:04:22.099Z,101371.38
2022-08-02T02:07:08.493Z,101389.28
2022-08-02T02:09:56.642Z,101377.84
2022-08-02T02:12:46.629Z,101364.72
2022-08-02T02:15:32.723Z,101380.50
2022-08-02T02:18:24.407Z,101381.19
2022-08-02T02:21:10.394Z,101384.16
2022-08-02T02:23:55.577Z,101387.34
2022-08-02T02:26:52.460Z,101383.16
2022-08-02T02:29:44.396Z,101383.16
2022-08-02T02:32:30.686Z,101387.19
2022-08-02T02:35:18.038Z,101389.84
2022-08-02T02:38:09.746Z,101387.59
2022-08-02T02:40:58.522Z,101382.28
2022-08-02T02:43:43.902Z,101381.06
2022-08-02T02:46:31.260Z,101368.06
2022-08-02T02:49:18.830Z,101372.56
2022-08-02T02:52:05.855Z,101377.31
2022-08-02T02:54:52.213Z,101377.75
2022-08-02T02:57:39.873Z,101373.38
2022-08-02T03:00:43.351Z,101373.38
2022-08-02T03:03:30.189Z,101366.72
2022-08-02T03:06:16.219Z,101358.47
2022-08-02T03:09:01.563Z,101367.28
2022-08-02T03:11:48.364Z,101340.75
2022-08-02T03:14:34.716Z,101368.13
2022-08-02T03:17:20.222Z,101361.13
2022-08-02T03:20:11.831Z,101342.41
2022-08-02T03:22:56.873Z,101348.53
2022-08-02T03:25:42.035Z,101324.13
2022-08-02T03:28:27.678Z,101347.44
2022-08-02T03:31:12.738Z,101343.25
2022-08-02T03:34:01.314Z,101347.44
2022-08-02T03:36:48.931Z,101340.47
2022-08-02T03:39:34.318Z,101325.38
2022-08-02T03:42:20.853Z,101332.19
2022-08-02T03:45:09.206Z,101331.50
2022-08-02T03:47:54.818Z,101329.25
2022-08-02T03:50:47.698Z,101329.38
2022-08-02T03:53:33.006Z,101326.91
2022-08-02T03:56:18.790Z,101326.91
2022-08-02T03:59:11.582Z,101320.88
2022-08-02T04:01:56.681Z,101325.91
2022-08-02T04:04:41.859Z,101325.06
2022-08-02T04:08:02.703Z,101313.09
2022-08-02T04:10:32.234Z,101317.53
2022-08-02T04:13:17.512Z,101316.41
2022-08-02T04:16:29.093Z,101294.66
2022-08-02T04:19:24.918Z,101315.88
2022-08-02T04:22:16.625Z,101317.00
2022-08-02T04:25:05.054Z,101318.13
2022-08-02T04:28:17.379Z,101313.09
2022-08-02T04:30:57.813Z,101315.63
2022-08-02T04:33:43.082Z,101323.41
2022-08-02T04:36:31.245Z,101323.13
2022-08-02T04:39:17.141Z,101321.19
2022-08-02T04:42:03.402Z,101323.69
2022-08-02T04:44:49.286Z,101321.19
2022-08-02T04:48:02.426Z,101320.63
2022-08-02T04:50:40.057Z,101336.69
2022-08-02T04:53:25.581Z,101302.78
2022-08-02T04:56:11.259Z,101335.84
2022-08-02T04:58:56.445Z,101336.69
2022-08-02T05:01:42.535Z,101341.72
2022-08-02T05:04:27.606Z,101331.09
2022-08-02T05:07:12.837Z,101338.75
2022-08-02T05:09:58.034Z,101346.19
2022-08-02T05:12:43.523Z,101344.31
2022-08-02T05:15:32.972Z,101344.47
2022-08-02T05:18:18.766Z,101351.13
2022-08-02T05:21:04.228Z,101348.09
2022-08-02T05:23:49.292Z,101344.31
2022-08-02T05:26:34.440Z,101331.72
2022-08-02T05:29:20.026Z,101333.09
2022-08-02T05:32:05.708Z,101344.25
2022-08-02T05:34:51.003Z,101341.47
2022-08-02T05:37:36.222Z,101332.69
2022-08-02T05:40:21.682Z,101342.06
2022-08-02T05:43:11.954Z,101354.63
2022-08-02T05:45:57.328Z,101345.38
2022-08-02T05:48:44.139Z,101354.16
2022-08-02T05:51:36.301Z,101349.00
2022-08-02T05:54:51.232Z,101353.88
2022-08-02T05:58:20.895Z,101346.19
2022-08-02T06:01:06.462Z,101347.00
2022-08-02T06:03:53.362Z,101345.72
2022-08-02T06:06:43.978Z,101353.25
2022-08-02T06:09:29.654Z,101346.41
2022-08-02T06:12:17.324Z,101340.13
2022-08-02T06:15:05.095Z,101344.00
2022-08-02T06:17:52.353Z,101312.84
2022-08-02T06:20:37.844Z,101338.88
2022-08-02T06:23:23.740Z,101336.91
2022-08-02T06:26:11.851Z,101335.38
2022-08-02T06:28:58.430Z,101335.59
2022-08-02T06:31:45.205Z,101329.28
2022-08-02T06:34:30.310Z,101362.19
2022-08-02T06:37:27.285Z,101357.44
2022-08-02T06:40:39.164Z,101346.81
2022-08-02T06:43:49.765Z,101344.28
2022-08-02T06:47:09.818Z,101351.91
2022-08-02T06:49:52.570Z,101355.66
2022-08-02T06:52:39.528Z,101326.97
2022-08-02T06:55:24.873Z,101328.19
2022-08-02T06:58:10.264Z,101342.69
2022-08-02T07:00:55.660Z,101348.53
2022-08-02T07:03:41.754Z,101342.53
2022-08-02T07:06:26.842Z,101347.47
2022-08-02T07:09:20.449Z,101339.41
2022-08-02T07:12:06.647Z,101344.97
2022-08-02T07:14:51.861Z,101342.38
2022-08-02T07:17:37.167Z,101344.44
2022-08-02T07:20:22.448Z,101351.97
2022-08-02T07:23:07.911Z,101349.81
2022-08-02T07:26:02.290Z,101358.88
2022-08-02T07:28:48.919Z,101353.75
2022-08-02T07:31:34.045Z,101350.00
2022-08-02T07:34:19.423Z,101337.25
2022-08-02T07:37:04.754Z,101363.22
2022-08-02T07:39:53.433Z,101362.28
2022-08-02T07:42:38.812Z,101349.28
2022-08-02T07:45:25.117Z,101365.66
2022-08-02T07:48:10.543Z,101368.97
2022-08-02T07:50:55.972Z,101363.41
2022-08-02T07:53:49.854Z,101356.44
2022-08-02T07:56:37.381Z,101362.69
2022-08-02T07:59:22.756Z,101362.72
2022-08-02T08:02:08.301Z,101357.59
2022-08-02T08:04:53.613Z,101357.97
2022-08-02T08:07:39.229Z,101353.53
2022-08-02T08:10:24.142Z,101357.59
2022-08-02T08:13:09.345Z,101354.97
2022-08-02T08:15:54.719Z,101358.47
2022-08-02T08:18:40.004Z,101361.47
2022-08-02T08:21:25.305Z,101334.91
2022-08-02T08:24:10.602Z,101362.66
2022-08-02T08:26:56.738Z,101370.34
2022-08-02T08:29:42.794Z,101361.19
2022-08-02T08:32:27.593Z,101369.69
2022-08-02T08:35:13.761Z,101337.69
2022-08-02T08:37:59.838Z,101358.41
2022-08-02T08:40:49.560Z,101349.38
2022-08-02T08:43:34.729Z,101335.41
2022-08-02T08:46:28.678Z,101349.03
2022-08-02T08:49:25.589Z,101361.25
2022-08-02T08:52:12.950Z,101361.09
2022-08-02T08:54:59.421Z,101361.59
2022-08-02T08:57:45.193Z,101357.41
2022-08-02T09:00:32.563Z,101346.44
2022-08-02T09:03:18.124Z,101350.41
2022-08-02T09:06:03.305Z,101351.75
2022-08-02T09:08:50.184Z,101352.41
2022-08-02T09:11:35.522Z,101342.06
2022-08-02T09:14:29.268Z,101333.56
2022-08-02T09:17:14.403Z,101349.41
2022-08-02T09:20:09.265Z,101358.06
2022-08-02T09:23:12.540Z,101347.03
2022-08-02T09:26:01.666Z,101339.69
2022-08-02T09:28:52.258Z,101347.06
2022-08-02T09:31:37.178Z,101344.97
2022-08-02T09:34:23.412Z,101330.59
2022-08-02T09:37:24.210Z,101333.59
2022-08-02T09:40:12.021Z,101320.25
2022-08-02T09:43:00.111Z,101337.72
2022-08-02T09:45:45.313Z,101348.84
2022-08-02T09:48:30.543Z,101343.34
2022-08-02T09:51:34.689Z,101342.53
2022-08-02T09:54:29.373Z,101352.16
2022-08-02T09:57:27.062Z,101354.63
2022-08-02T10:00:17.967Z,101355.47
2022-08-02T10:03:11.088Z,101348.72
2022-08-02T10:06:07.072Z,101349.34
2022-08-02T10:08:53.490Z,101346.19
2022-08-02T10:11:39.688Z,101344.91
2022-08-02T10:14:26.441Z,101331.59
2022-08-02T10:17:12.211Z,101345.78
2022-08-02T10:20:01.833Z,101351.50
2022-08-02T10:22:50.146Z,101347.25
2022-08-02T10:25:38.032Z,101354.81
2022-08-02T10:28:30.178Z,101347.50
2022-08-02T10:31:22.327Z,101352.25
2022-08-02T10:34:12.550Z,101347.56
2022-08-02T10:37:01.369Z,101355.94
2022-08-02T10:39:50.714Z,101341.91
2022-08-02T10:42:42.361Z,101361.66
2022-08-02T10:45:27.478Z,101360.28
2022-08-02T10:48:14.689Z,101359.44
2022-08-02T10:51:03.437Z,101339.16
2022-08-02T10:54:08.867Z,101341.84
2022-08-02T10:56:56.704Z,101357.59
2022-08-02T10:59:42.236Z,101344.59
2022-08-02T11:02:39.696Z,101352.13
2022-08-02T11:05:42.236Z,101345.47
2022-08-02T11:08:29.011Z,101341.31
2022-08-02T11:11:13.964Z,101350.94
2022-08-02T11:14:07.072Z,101333.69
2022-08-02T11:16:55.311Z,101336.03
2022-08-02T11:20:25.272Z,101349.81
2022-08-02T11:23:49.022Z,101347.44
2022-08-02T11:26:34.365Z,101345.09
2022-08-02T11:29:20.271Z,101351.81
2022-08-02T11:32:16.304Z,101341.25
2022-08-02T11:35:03.382Z,101342.59
2022-08-02T11:37:48.914Z,101336.72
2022-08-02T11:40:38.513Z,101333.13
2022-08-02T11:43:25.048Z,101344.56
2022-08-02T11:46:14.717Z,101340.31
2022-08-02T11:49:20.142Z,101322.94
2022-08-02T11:52:07.387Z,101336.97
2022-08-02T11:54:52.579Z,101342.78
2022-08-02T11:58:03.532Z,101346.59
2022-08-02T12:00:46.980Z,101335.25
2022-08-02T12:03:39.686Z,101341.22
2022-08-02T12:06:25.823Z,101328.94
2022-08-02T12:09:18.210Z,101325.69
2022-08-02T12:12:05.116Z,101327.19
2022-08-02T12:14:50.030Z,101330.25
2022-08-02T12:17:54.001Z,101341.41
2022-08-02T12:20:39.339Z,101335.03
2022-08-02T12:23:24.807Z,101337.91
2022-08-02T12:26:15.947Z,101310.44
2022-08-02T12:29:01.761Z,101328.75
2022-08-02T12:31:56.502Z,101323.94
2022-08-02T12:34:43.469Z,101310.69
2022-08-02T12:37:28.718Z,101317.75
2022-08-02T12:40:20.868Z,101334.91
2022-08-02T12:43:19.954Z,101327.25
2022-08-02T12:46:04.968Z,101341.03
2022-08-02T12:49:16.177Z,101319.50
2022-08-02T12:52:00.082Z,101336.44
2022-08-02T12:54:51.663Z,101322.31
2022-08-02T12:58:01.103Z,101334.50
2022-08-02T13:01:01.231Z,101326.00
2022-08-02T13:04:09.753Z,101333.66
2022-08-02T13:06:51.482Z,101333.88
2022-08-02T13:09:38.393Z,101310.75
2022-08-02T13:12:24.017Z,101323.81
2022-08-02T13:15:12.390Z,101323.09
2022-08-02T13:18:15.378Z,101324.09
2022-08-02T13:21:00.579Z,101327.19
2022-08-02T13:23:54.100Z,101330.16
2022-08-02T13:26:40.501Z,101315.50
2022-08-02T13:29:25.703Z,101316.19
2022-08-02T13:32:10.977Z,101321.25
2022-08-02T13:34:58.120Z,101319.28
2022-08-02T13:37:44.579Z,101304.06
2022-08-02T13:40:49.017Z,101294.41
2022-08-02T13:43:53.442Z,101304.47
2022-08-02T13:46:45.493Z,101304.78
2022-08-02T13:49:49.687Z,101303.47
2022-08-02T13:52:36.453Z,101313.94
2022-08-02T13:55:21.422Z,101297.59
2022-08-02T13:58:06.784Z,101307.25
2022-08-02T14:00:51.873Z,101303.09
2022-08-02T14:04:05.933Z,101281.03
2022-08-02T14:06:42.064Z,101299.13
2022-08-02T14:09:27.415Z,101292.81
2022-08-02T14:12:13.380Z,101266.28
2022-08-02T14:14:58.850Z,101270.22
2022-08-02T14:17:44.094Z,101280.28
2022-08-02T14:20:30.097Z,101280.13
2022-08-02T14:23:15.832Z,101278.16
2022-08-02T14:26:01.127Z,101268.50
2022-08-02T14:28:46.770Z,101266.59
2022-08-02T14:31:40.184Z,101275.69
2022-08-02T14:34:28.882Z,101263.44
2022-08-02T14:37:14.074Z,101263.19
2022-08-02T14:40:01.253Z,101270.69
2022-08-02T14:42:47.583Z,101284.81
2022-08-02T14:45:40.163Z,101282.22
2022-08-02T14:48:26.323Z,101278.06
2022-08-02T14:51:13.905Z,101287.66
2022-08-02T14:54:02.675Z,101275.03
2022-08-02T14:56:48.889Z,101270.88
2022-08-02T14:59:33.946Z,101264.78
2022-08-02T15:02:19.243Z,101270.88
2022-08-02T15:05:04.752Z,101275.16
2022-08-02T15:07:49.914Z,101270.59
2022-08-02T15:10:34.946Z,101268.78
2022-08-02T15:13:20.199Z,101275.72
2022-08-02T15:16:06.834Z,101272.53
2022-08-02T15:18:52.062Z,101249.59
2022-08-02T15:21:42.241Z,101251.47
2022-08-02T15:24:39.680Z,101275.59
2022-08-02T15:27:25.105Z,101276.63
2022-08-02T15:30:10.651Z,101267.97
2022-08-02T15:32:56.361Z,101259.38
2022-08-02T15:35:41.389Z,101264.09
2022-08-02T15:38:26.532Z,101259.25
2022-08-02T15:41:11.945Z,101254.66
2022-08-02T15:44:01.144Z,101250.38
2022-08-02T15:46:46.352Z,101262.97
2022-08-02T15:49:31.481Z,101255.78
2022-08-02T15:52:16.866Z,101252.38
2022-08-02T15:55:06.910Z,101250.25
2022-08-02T15:57:52.737Z,101252.75
2022-08-02T16:00:38.039Z,101254.91
2022-08-02T16:03:23.368Z,101215.84
2022-08-02T16:06:08.564Z,101254.91
2022-08-02T16:08:54.861Z,101245.31
2022-08-02T16:11:40.204Z,101244.28
2022-08-02T16:14:25.722Z,101219.53
2022-08-02T16:17:10.863Z,101229.03
2022-08-02T16:19:57.939Z,101230.97
2022-08-02T16:22:43.261Z,101224.75
2022-08-02T16:25:28.539Z,101224.03
2022-08-02T16:28:13.769Z,101228.75
2022-08-02T16:31:10.350Z,101221.91
2022-08-02T16:33:57.076Z,101224.44
2022-08-02T16:36:42.609Z,101232.53
2022-08-02T16:39:27.906Z,101238.19
2022-08-02T16:42:13.245Z,101242.34
2022-08-02T16:45:02.095Z,101229.03
2022-08-02T16:47:56.081Z,101243.78
2022-08-02T16:50:46.383Z,101238.44
2022-08-02T16:53:37.119Z,101238.91
2022-08-02T16:56:23.597Z,101230.59
2022-08-02T16:59:12.972Z,101231.97
2022-08-02T17:02:03.051Z,101230.69
2022-08-02T17:05:00.657Z,101221.53
2022-08-02T17:10:50.898Z,101217.34
2022-08-02T17:13:37.955Z,101197.59
2022-08-02T17:16:26.074Z,101213.19
2022-08-02T17:19:11.543Z,101218.22
2022-08-02T17:21:57.007Z,101214.06
2022-08-02T17:24:42.390Z,101216.72
2022-08-02T17:27:27.746Z,101207.94
2022-08-02T17:30:13.982Z,101207.94
2022-08-02T17:32:59.591Z,101206.00
2022-08-02T17:35:52.886Z,101212.44
2022-08-02T17:38:50.287Z,101207.84
2022-08-02T17:41:39.779Z,101210.41
2022-08-02T17:44:36.977Z,101208.78
2022-08-02T17:47:30.812Z,101194.16
2022-08-02T17:50:16.375Z,101209.03
2022-08-02T17:53:02.102Z,101213.56
2022-08-02T17:55:50.961Z,101207.47
2022-08-02T17:58:36.054Z,101219.63
2022-08-02T18:01:42.048Z,101215.13
2022-08-02T18:04:38.799Z,101217.97
2022-08-02T18:07:25.098Z,101211.59
2022-08-02T18:10:10.681Z,101210.41
2022-08-02T18:12:57.543Z,101207.06
2022-08-02T18:15:45.773Z,101198.72
2022-08-02T18:18:31.212Z,101193.19
2022-08-02T18:21:22.124Z,101191.31
2022-08-02T18:24:09.108Z,101198.22
2022-08-02T18:26:56.703Z,101195.25
2022-08-02T18:29:42.036Z,101194.56
2022-08-02T18:33:55.282Z,101193.69
2022-08-02T18:35:32.081Z,101192.13
2022-08-02T18:38:20.843Z,101186.22
2022-08-02T18:41:12.541Z,101191.25
2022-08-02T18:43:58.278Z,101164.66
2022-08-02T18:46:45.645Z,101179.63
2022-08-02T18:49:46.108Z,101173.69
2022-08-02T18:52:33.194Z,101178.00
2022-08-02T18:56:00.130Z,101183.72
2022-08-02T18:58:24.550Z,101166.38
2022-08-02T19:01:14.645Z,101183.41
2022-08-02T19:04:08.695Z,101175.78
2022-08-02T19:06:54.533Z,101179.66
2022-08-02T19:09:40.605Z,101174.00
2022-08-02T19:12:28.143Z,101168.34
2022-08-02T19:15:14.991Z,101175.88
2022-08-02T19:18:01.877Z,101179.06
2022-08-02T19:20:48.065Z,101183.41
2022-08-02T19:23:33.906Z,101182.38
2022-08-02T19:26:19.140Z,101185.19
2022-08-02T19:29:08.829Z,101182.41
2022-08-02T19:31:59.990Z,101185.72
2022-08-02T19:34:47.446Z,101186.38
2022-08-02T19:40:39.956Z,101192.63
2022-08-02T19:44:26.681Z,101187.56
2022-08-02T19:46:31.211Z,101189.47
2022-08-02T19:49:39.139Z,101189.28
2022-08-02T19:52:25.038Z,101162.78
2022-08-02T19:55:58.591Z,101193.47
2022-08-02T19:58:15.775Z,101193.28
2022-08-02T20:01:01.225Z,101196.28
2022-08-02T20:03:52.331Z,101185.09
2022-08-02T20:06:39.070Z,101200.75
2022-08-02T20:09:33.447Z,101192.22
2022-08-02T20:12:37.109Z,101177.91
2022-08-02T20:15:22.666Z,101199.72
2022-08-02T20:18:29.634Z,101208.72
2022-08-02T20:21:34.147Z,101198.53
2022-08-02T20:24:19.636Z,101206.66
2022-08-02T20:27:16.598Z,101199.66
2022-08-02T20:30:03.016Z,101200.97
2022-08-02T20:32:52.604Z,101201.63
2022-08-02T20:35:39.465Z,101193.09
2022-08-02T20:38:30.829Z,101206.78
2022-08-02T20:41:21.910Z,101209.09
2022-08-02T20:44:15.504Z,101206.06
2022-08-02T20:47:01.635Z,101195.97
2022-08-02T20:50:05.687Z,101209.81
2022-08-02T20:52:53.465Z,101203.94
2022-08-02T20:55:49.857Z,101220.56
2022-08-02T20:58:52.234Z,101206.22
2022-08-02T21:01:56.943Z,101206.53
2022-08-02T21:04:42.673Z,101192.31
2022-08-02T21:07:28.841Z,101195.13
2022-08-02T21:10:17.768Z,101213.44
2022-08-02T21:13:19.041Z,101178.84
2022-08-02T21:16:08.996Z,101209.38
2022-08-02T21:19:00.062Z,101201.47
2022-08-02T21:21:45.708Z,101188.13
2022-08-02T21:24:31.394Z,101204.63
2022-08-02T21:27:53.290Z,101204.06
2022-08-02T21:30:24.347Z,101201.91
2022-08-02T21:33:18.922Z,101198.56
2022-08-02T21:36:08.877Z,101200.84
2022-08-02T21:38:57.351Z,101194.97
2022-08-02T21:41:46.149Z,101191.78
2022-08-02T21:44:32.553Z,101180.25
2022-08-02T21:47:25.183Z,101176.69
2022-08-02T21:50:15.964Z,101193.84
2022-08-02T21:53:01.757Z,101182.91
2022-08-02T21:56:00.604Z,101197.09
2022-08-02T21:58:47.826Z,101194.22
2022-08-02T22:01:35.024Z,101189.22
2022-08-02T22:04:21.243Z,101194.97
2022-08-02T22:07:06.584Z,101180.03
2022-08-02T22:09:53.102Z,101179.19
2022-08-02T22:12:38.242Z,101185.72
2022-08-02T22:15:35.892Z,101186.03
2022-08-02T22:18:29.388Z,101177.50
2022-08-02T22:21:16.837Z,101182.38
2022-08-02T22:24:12.929Z,101172.28
2022-08-02T22:27:04.744Z,101186.78
2022-08-02T22:29:50.101Z,101189.25
2022-08-02T22:32:54.353Z,101186.59
2022-08-02T22:35:39.829Z,101187.28
2022-08-02T22:38:25.061Z,101148.28
2022-08-02T22:41:10.609Z,101176.97
2022-08-02T22:43:57.221Z,101178.94
2022-08-02T22:46:42.626Z,101179.81
2022-08-02T22:49:38.620Z,101185.38
2022-08-02T22:52:29.241Z,101168.84
2022-08-02T22:55:14.527Z,101159.78
2022-08-02T22:58:00.016Z,101167.09
2022-08-02T22:58:36.987Z,101219.78
2022-08-02T22:58:52.549Z,101169.81
2022-08-02T23:00:45.054Z,101170.97
2022-08-02T23:03:30.524Z,101179.91
2022-08-02T23:06:17.490Z,101183.38
2022-08-02T23:09:02.836Z,101175.72
2022-08-02T23:11:47.894Z,101190.81
2022-08-02T23:14:33.021Z,101183.03
2022-08-02T23:17:37.750Z,101164.59
2022-08-02T23:20:23.242Z,101187.06
2022-08-02T23:23:11.902Z,101186.94
2022-08-02T23:25:57.278Z,101192.25
2022-08-02T23:28:42.283Z,101190.84
2022-08-02T23:31:38.087Z,101187.81
2022-08-02T23:34:23.788Z,101180.44
2022-08-02T23:37:09.454Z,101184.47
2022-08-02T23:39:54.446Z,101188.09
2022-08-02T23:42:39.809Z,101186.72
2022-08-02T23:45:25.185Z,101186.34
2022-08-02T23:48:22.901Z,101188.47
2022-08-02T23:51:07.858Z,101161.84
2022-08-02T23:53:53.209Z,101157.38
2022-08-02T23:56:39.154Z,101153.88
2022-08-02T23:59:24.661Z,101178.41
